This is the latest recevied weather packets stored in our database for station/object K5NCO. If no packets are shown the sender has not sent any weather packets the latest 1 day(s).
| Time | Temp. | Humidity | Pressure | Rain* | Wind** | Luminosity | Snow |
|---|---|---|---|---|---|---|---|
| 1778093068 | 21.67° C | 80% | 1013.7 hPa | 0 mm | - | 324 W/m² | - |
| 1778090643 | 21.67° C | 81% | 1013.5 hPa | 0 mm | - | 734 W/m² | - |
| 1778090340 | 20.56° C | 81% | 1013.5 hPa | 0 mm | - | 735 W/m² | - |
| 1778087916 | 18.33° C | 87% | 1013.4 hPa | 0 mm | - | 700 W/m² | - |
| 1778087613 | 18.89° C | 86% | 1013.5 hPa | 0 mm | - | 579 W/m² | - |
| 1778087311 | 18.33° C | 88% | 1013.6 hPa | 0 mm | - | 620 W/m² | - |
| 1778086403 | 17.78° C | 89% | 1013.9 hPa | 0 mm | - | 496 W/m² | - |
| 1778086094 | 17.22° C | 90% | 1014 hPa | 0 mm | - | 565 W/m² | - |
| 1778085488 | 17.22° C | 89% | 1014.7 hPa | 0 mm | - | 325 W/m² | - |
| 1778084273 | 16.11° C | 94% | 1014.5 hPa | 0 mm | - | 225 W/m² | - |
| 1778083364 | 16.11° C | 96% | 1015.8 hPa | 0 mm | - | 26 W/m² | - |
| 1778083063 | 16.67° C | 95% | 1015.2 hPa | 0 mm | - | 29 W/m² | - |
| 1778081324 | 18.33° C | 94% | 1014.8 hPa | 0 mm | - | 36 W/m² | - |
| 1778080416 | 18.89° C | 93% | 1013.9 hPa | 0 mm | - | 39 W/m² | - |
| 1778079810 | 18.89° C | 93% | 1013.7 hPa | 0 mm | - | 14 W/m² | - |
| 1778079507 | 19.44° C | 92% | 1013.4 hPa | 0 mm | - | 17 W/m² | - |
| 1778078901 | 21.67° C | 90% | 1012.5 hPa | 0 mm | - | 19 W/m² | - |
| 1778078597 | 25° C | 86% | 1012.4 hPa | 0 mm | - | 37 W/m² | - |
| 1778078295 | 25° C | 89% | 1012.2 hPa | 0 mm | - | 70 W/m² | - |
| 1778064324 | 23.89° C | 94% | 1010.6 hPa | 0 mm | - | 0 W/m² | - |
| 1778064016 | 23.89° C | 94% | 1010.6 hPa | 0 mm | - | 0 W/m² | - |
| 1778063713 | 23.89° C | 94% | 1010.6 hPa | 0 mm | - | 0 W/m² | - |
| 1778052243 | 23.89° C | 92% | 1009.8 hPa | 0 mm | - | 0 W/m² | - |
| 1778050164 | 23.89° C | 92% | 1009.9 hPa | 0 mm | - | 0 W/m² | - |
| 1778049255 | 24.44° C | 92% | 1009.9 hPa | 0 mm | - | 0 W/m² | - |
* Rain latest hour (hover to see other rain measurements)
** Current wind speed in m/s (hover to see current wind gust speed)